createdAt,value
2018-07-04T00:02:15.705Z,6.93
2018-07-04T00:04:55.460Z,7.23
2018-07-04T00:07:35.152Z,10.37
2018-07-04T00:10:14.844Z,5.60
2018-07-04T00:12:54.541Z,8.27
2018-07-04T00:15:34.100Z,5.97
2018-07-04T00:18:13.965Z,6.10
2018-07-04T00:20:47.408Z,6.20
2018-07-04T00:23:26.871Z,7.00
2018-07-04T00:26:06.675Z,7.53
2018-07-04T00:28:46.540Z,5.93
2018-07-04T00:31:26.217Z,7.37
2018-07-04T00:34:05.803Z,6.60
2018-07-04T00:36:45.496Z,7.03
2018-07-04T00:39:25.080Z,7.57
2018-07-04T00:41:58.756Z,8.60
2018-07-04T00:44:39.085Z,10.13
2018-07-04T00:47:18.795Z,6.70
2018-07-04T00:49:58.396Z,10.13
2018-07-04T00:52:38.005Z,5.97
2018-07-04T00:55:17.556Z,6.93
2018-07-04T01:00:37.359Z,7.83
2018-07-04T01:03:17.053Z,7.87
2018-07-04T01:05:50.566Z,7.23
2018-07-04T01:08:30.209Z,6.87
2018-07-04T01:11:09.924Z,5.97
2018-07-04T01:13:49.655Z,8.47
2018-07-04T01:16:29.267Z,6.47
2018-07-04T01:19:08.800Z,6.63
2018-07-04T01:21:48.499Z,6.40
2018-07-04T01:24:28.119Z,10.10
2018-07-04T01:27:07.602Z,6.13
2018-07-04T01:29:47.335Z,9.20
2018-07-04T01:32:26.927Z,6.07
2018-07-04T01:35:06.576Z,6.07
2018-07-04T01:37:46.331Z,8.60
2018-07-04T01:40:26.066Z,8.00
2018-07-04T01:43:05.560Z,10.13
2018-07-04T01:45:45.252Z,7.10
2018-07-04T01:48:24.721Z,6.73
2018-07-04T01:51:04.428Z,7.40
2018-07-04T01:53:37.961Z,9.37
2018-07-04T01:56:17.711Z,8.20
2018-07-04T01:58:57.218Z,7.80
2018-07-04T02:01:36.864Z,7.60
2018-07-04T02:04:16.680Z,8.03
2018-07-04T02:06:56.336Z,7.80
2018-07-04T02:09:35.917Z,7.43
2018-07-04T02:12:15.535Z,10.50
2018-07-04T02:14:55.256Z,7.70
2018-07-04T02:17:34.858Z,8.63
2018-07-04T02:20:08.356Z,7.17
2018-07-04T02:22:47.949Z,6.73
2018-07-04T02:25:27.495Z,6.97
2018-07-04T02:28:07.232Z,9.20
2018-07-04T02:30:46.994Z,7.23
2018-07-04T02:33:20.584Z,7.70
2018-07-04T02:36:00.333Z,7.90
2018-07-04T02:38:39.870Z,8.30
2018-07-04T02:41:19.560Z,8.63
2018-07-04T02:43:59.070Z,8.97
2018-07-04T02:46:39.089Z,9.60
2018-07-04T02:49:19.656Z,7.87
2018-07-04T02:51:53.115Z,7.87
2018-07-04T02:54:32.792Z,8.90
2018-07-04T02:57:12.556Z,7.87
2018-07-04T02:59:52.140Z,8.13
2018-07-04T03:02:32.287Z,7.80
2018-07-04T03:05:05.874Z,8.63
2018-07-04T03:07:45.516Z,7.43
2018-07-04T03:10:25.220Z,9.90
2018-07-04T03:12:58.915Z,8.17
2018-07-04T03:15:38.629Z,7.90
2018-07-04T03:18:18.456Z,7.33
2018-07-04T03:20:58.100Z,8.67
2018-07-04T03:23:37.623Z,9.23
2018-07-04T03:26:17.332Z,9.57
2018-07-04T03:28:57.156Z,10.03
2018-07-04T03:31:36.941Z,8.17
2018-07-04T03:34:16.655Z,9.07
2018-07-04T03:36:56.124Z,9.27
2018-07-04T03:39:35.737Z,8.13
2018-07-04T03:42:15.407Z,8.07
2018-07-04T03:44:55.089Z,10.47
2018-07-04T03:47:34.579Z,9.07
2018-07-04T03:50:08.296Z,7.77
2018-07-04T03:52:47.839Z,7.73
2018-07-04T03:55:27.372Z,8.80
2018-07-04T03:58:06.893Z,8.53
2018-07-04T04:00:46.736Z,7.90
2018-07-04T04:03:26.448Z,8.50
2018-07-04T04:06:06.012Z,7.47
2018-07-04T04:08:45.691Z,8.63
2018-07-04T04:11:25.348Z,7.43
2018-07-04T04:14:04.913Z,8.27
2018-07-04T04:16:44.552Z,8.20
2018-07-04T04:19:28.496Z,7.50
2018-07-04T04:22:07.820Z,7.10
2018-07-04T04:24:47.572Z,7.63
2018-07-04T04:27:27.177Z,6.60
2018-07-04T04:30:06.863Z,6.73
2018-07-04T04:32:46.353Z,6.50
2018-07-04T04:35:26.017Z,7.00
2018-07-04T04:38:05.580Z,6.70
2018-07-04T04:40:45.515Z,6.87
2018-07-04T04:43:25.173Z,6.87
2018-07-04T04:46:04.724Z,7.70
2018-07-04T04:48:44.283Z,5.97
2018-07-04T04:51:24.010Z,6.67
2018-07-04T04:54:03.648Z,8.40
2018-07-04T04:56:43.352Z,6.13
2018-07-04T04:59:23.236Z,7.63
2018-07-04T05:02:02.941Z,6.13
2018-07-04T05:04:42.579Z,6.37
2018-07-04T05:07:22.181Z,6.60
2018-07-04T05:10:01.760Z,6.23
2018-07-04T05:12:41.296Z,6.27
2018-07-04T05:15:20.999Z,6.03
2018-07-04T05:18:00.507Z,8.17
2018-07-04T05:20:40.195Z,7.83
2018-07-04T05:23:19.896Z,6.10
2018-07-04T05:25:59.600Z,5.90
2018-07-04T05:28:39.148Z,6.43
2018-07-04T05:31:18.884Z,6.20
2018-07-04T05:33:58.596Z,6.27
2018-07-04T05:36:38.093Z,5.87
2018-07-04T05:39:17.664Z,5.23
2018-07-04T05:41:57.159Z,5.83
2018-07-04T05:44:36.844Z,7.17
2018-07-04T05:47:16.240Z,5.30
2018-07-04T05:49:55.817Z,6.97
2018-07-04T05:52:35.532Z,5.90
2018-07-04T05:55:15.157Z,6.37
2018-07-04T05:57:54.726Z,5.73
2018-07-04T06:00:34.286Z,9.60
2018-07-04T06:03:13.976Z,6.33
2018-07-04T06:05:53.539Z,5.17
2018-07-04T06:08:33.174Z,5.73
2018-07-04T06:11:12.609Z,6.57
2018-07-04T06:13:52.264Z,4.80
2018-07-04T06:16:31.730Z,5.77
2018-07-04T06:19:11.760Z,5.27
2018-07-04T06:21:51.575Z,8.63
2018-07-04T06:24:31.348Z,6.73
2018-07-04T06:27:11.100Z,6.40
2018-07-04T06:29:50.693Z,4.87
2018-07-04T06:32:30.459Z,5.33
2018-07-04T06:35:10.013Z,15.63
2018-07-04T06:37:39.440Z,5.90
2018-07-04T06:40:07.036Z,6.70
2018-07-04T06:42:35.005Z,5.40
2018-07-04T06:45:02.220Z,6.60
2018-07-04T06:47:29.473Z,8.57
2018-07-04T06:49:56.670Z,5.10
2018-07-04T06:52:23.862Z,6.23
2018-07-04T06:54:51.560Z,6.00
2018-07-04T06:57:19.848Z,7.03
2018-07-04T06:59:47.428Z,4.03
2018-07-04T07:02:15.620Z,5.23
2018-07-04T07:04:56.386Z,4.97
2018-07-04T07:07:36.013Z,5.87
2018-07-04T07:10:15.552Z,5.37
2018-07-04T07:12:55.188Z,5.90
2018-07-04T07:15:34.892Z,4.20
2018-07-04T07:18:15.149Z,5.23
2018-07-04T07:20:54.560Z,5.60
2018-07-04T07:23:34.248Z,11.20
2018-07-04T07:26:13.944Z,4.37
2018-07-04T07:28:53.589Z,5.30
2018-07-04T07:31:27.311Z,4.43
2018-07-04T07:34:07.038Z,6.33
2018-07-04T07:36:47.044Z,6.33
2018-07-04T07:39:26.523Z,4.57
2018-07-04T07:42:06.560Z,4.73
2018-07-04T07:44:46.688Z,5.67
2018-07-04T07:47:26.372Z,4.03
2018-07-04T07:50:06.056Z,6.97
2018-07-04T07:52:45.707Z,4.30
2018-07-04T07:55:25.366Z,4.83
2018-07-04T07:58:04.877Z,6.27
2018-07-04T08:00:44.536Z,5.97
2018-07-04T08:03:24.297Z,5.33
2018-07-04T08:06:03.861Z,3.03
2018-07-04T08:08:43.500Z,5.60
2018-07-04T08:11:22.964Z,4.10
2018-07-04T08:14:02.476Z,5.77
2018-07-04T08:16:41.981Z,4.90
2018-07-04T08:19:21.642Z,5.83
2018-07-04T08:22:01.561Z,3.13
2018-07-04T08:24:41.089Z,7.63
2018-07-04T08:27:20.652Z,5.70
2018-07-04T08:30:00.209Z,6.07
2018-07-04T08:32:39.920Z,6.30
2018-07-04T08:35:19.329Z,7.87
2018-07-04T08:37:58.964Z,4.23
2018-07-04T08:40:38.640Z,4.60
2018-07-04T08:43:18.201Z,5.63
2018-07-04T08:45:57.692Z,3.93
2018-07-04T08:48:37.532Z,4.77
2018-07-04T08:51:17.277Z,4.43
2018-07-04T08:53:56.792Z,3.60
2018-07-04T08:56:36.284Z,5.27
2018-07-04T08:59:15.847Z,6.37
2018-07-04T09:01:55.648Z,6.40
2018-07-04T09:04:35.227Z,6.00
2018-07-04T09:07:14.825Z,6.07
2018-07-04T09:09:54.462Z,6.27
2018-07-04T09:12:34.032Z,3.33
2018-07-04T09:15:07.607Z,8.00
2018-07-04T09:17:47.209Z,6.07
2018-07-04T09:20:26.700Z,4.57
2018-07-04T09:23:06.412Z,3.27
2018-07-04T09:25:46.022Z,3.97
2018-07-04T09:28:25.715Z,4.13
2018-07-04T09:31:05.387Z,5.27
2018-07-04T09:33:45.027Z,3.93
2018-07-04T09:36:24.720Z,7.83
2018-07-04T09:39:04.736Z,5.37
2018-07-04T09:41:44.404Z,3.73
2018-07-04T09:44:24.068Z,6.47
2018-07-04T09:47:03.728Z,4.80
2018-07-04T09:49:43.474Z,4.07
2018-07-04T09:52:23.017Z,4.57
2018-07-04T09:55:02.541Z,3.63
2018-07-04T09:57:42.012Z,4.33
2018-07-04T10:00:27.605Z,3.33
2018-07-04T10:03:07.900Z,5.40
2018-07-04T10:05:47.537Z,6.83
2018-07-04T10:08:27.956Z,8.37
2018-07-04T10:11:07.564Z,5.53
2018-07-04T10:13:47.072Z,5.60
2018-07-04T10:16:26.684Z,5.07
2018-07-04T10:19:06.248Z,4.50
2018-07-04T10:21:45.941Z,3.23
2018-07-04T10:24:26.356Z,4.10
2018-07-04T10:27:05.952Z,4.77
2018-07-04T10:29:45.484Z,4.83
2018-07-04T10:32:25.048Z,2.97
2018-07-04T10:35:04.704Z,2.40
2018-07-04T10:37:44.255Z,3.70
2018-07-04T10:40:23.855Z,4.43
2018-07-04T10:43:03.472Z,2.80
2018-07-04T10:45:43.256Z,6.03
2018-07-04T10:48:22.992Z,4.80
2018-07-04T10:50:56.658Z,3.60
2018-07-04T10:53:36.153Z,4.43
2018-07-04T10:56:15.656Z,3.33
2018-07-04T10:58:55.380Z,5.27
2018-07-04T11:01:35.149Z,3.27
2018-07-04T11:04:14.774Z,3.13
2018-07-04T11:06:54.382Z,3.97
2018-07-04T11:09:33.928Z,4.00
2018-07-04T11:12:13.648Z,4.13
2018-07-04T11:14:53.194Z,3.67
2018-07-04T11:17:32.809Z,3.30
2018-07-04T11:20:12.453Z,3.47
2018-07-04T11:22:52.041Z,4.07
2018-07-04T11:25:31.595Z,2.50
2018-07-04T11:28:12.240Z,3.27
2018-07-04T11:30:52.348Z,2.83
2018-07-04T11:33:31.892Z,3.10
2018-07-04T11:36:11.780Z,2.50
2018-07-04T11:38:51.457Z,2.57
2018-07-04T11:41:30.776Z,4.33
2018-07-04T11:44:10.440Z,3.90
2018-07-04T11:46:37.933Z,3.27
2018-07-04T11:49:05.201Z,2.60
2018-07-04T11:51:32.397Z,5.97
2018-07-04T11:53:59.586Z,6.83
2018-07-04T11:56:26.856Z,3.93
2018-07-04T11:58:54.033Z,4.83
2018-07-04T12:01:21.209Z,3.90
2018-07-04T12:04:00.724Z,6.37
2018-07-04T12:06:40.417Z,3.80
2018-07-04T12:09:07.935Z,4.73
2018-07-04T12:11:35.121Z,4.40
2018-07-04T12:14:02.324Z,5.07
2018-07-04T12:16:29.528Z,4.37
2018-07-04T12:18:56.723Z,6.37
2018-07-04T12:21:23.929Z,6.37
2018-07-04T12:23:51.141Z,4.83
2018-07-04T12:26:18.336Z,4.77
2018-07-04T12:28:45.606Z,3.57
2018-07-04T12:31:12.769Z,5.03
2018-07-04T12:33:39.964Z,3.00
2018-07-04T12:36:07.168Z,4.00
2018-07-04T12:38:34.344Z,3.83
2018-07-04T12:41:01.544Z,3.73
2018-07-04T12:43:28.793Z,3.53
2018-07-04T12:45:55.965Z,3.87
2018-07-04T12:48:23.165Z,4.33
2018-07-04T12:50:50.472Z,4.97
2018-07-04T12:53:17.643Z,5.50
2018-07-04T12:55:57.260Z,3.77
2018-07-04T12:58:36.849Z,4.73
2018-07-04T13:01:16.476Z,4.13
2018-07-04T13:03:56.065Z,3.60
2018-07-04T13:06:35.579Z,4.83
2018-07-04T13:09:15.282Z,5.40
2018-07-04T13:11:54.988Z,3.03
2018-07-04T13:14:28.687Z,3.30
2018-07-04T13:17:08.408Z,4.43
2018-07-04T13:19:47.963Z,3.77
2018-07-04T13:22:27.521Z,4.22
2018-07-04T13:25:07.249Z,3.10
2018-07-04T13:27:46.760Z,2.83
2018-07-04T13:30:26.753Z,2.47
2018-07-04T13:33:06.376Z,2.87
2018-07-04T13:35:46.104Z,4.12
2018-07-04T13:38:25.777Z,4.50
2018-07-04T13:41:05.488Z,4.83
2018-07-04T13:43:45.175Z,3.83
2018-07-04T13:46:24.777Z,3.22
2018-07-04T13:49:04.249Z,2.90
2018-07-04T13:51:43.777Z,3.67
2018-07-04T13:54:23.377Z,3.12
2018-07-04T13:57:03.310Z,4.55
2018-07-04T13:59:42.708Z,4.35
2018-07-04T14:02:22.283Z,4.70
2018-07-04T14:05:02.264Z,3.75
2018-07-04T14:07:41.992Z,2.72
2018-07-04T14:10:21.741Z,2.90
2018-07-04T14:13:01.365Z,3.22
2018-07-04T14:15:40.985Z,4.85
2018-07-04T14:18:20.668Z,2.40
2018-07-04T14:21:00.120Z,2.83
2018-07-04T14:23:33.828Z,2.47
2018-07-04T14:26:13.889Z,3.98
2018-07-04T14:28:53.609Z,2.98
2018-07-04T14:31:33.098Z,3.95
2018-07-04T14:34:12.759Z,2.15
2018-07-04T14:36:52.428Z,2.17
2018-07-04T14:39:31.856Z,7.40
2018-07-04T14:42:11.996Z,3.42
2018-07-04T14:44:51.717Z,2.70
2018-07-04T14:47:31.416Z,2.93
2018-07-04T14:50:10.984Z,2.77
2018-07-04T14:52:50.536Z,3.37
2018-07-04T14:55:30.193Z,6.73
2018-07-04T14:58:09.863Z,4.30
2018-07-04T15:00:49.316Z,8.30
2018-07-04T15:03:29.020Z,3.67
2018-07-04T15:06:08.575Z,1.47
2018-07-04T15:08:48.097Z,2.27
2018-07-04T15:11:27.800Z,2.17
2018-07-04T15:14:07.376Z,3.87
2018-07-04T15:16:46.862Z,1.60
2018-07-04T15:19:26.353Z,1.80
2018-07-04T15:22:06.191Z,2.30
2018-07-04T15:24:40.061Z,1.67
2018-07-04T15:27:19.873Z,1.57
2018-07-04T15:29:59.327Z,2.47
2018-07-04T15:32:39.124Z,1.67
2018-07-04T15:35:18.804Z,3.03
2018-07-04T15:37:58.383Z,1.87
2018-07-04T15:40:38.440Z,1.40
2018-07-04T15:43:18.224Z,1.43
2018-07-04T15:45:57.800Z,2.37
2018-07-04T15:48:37.300Z,1.60
2018-07-04T15:51:16.759Z,2.33
2018-07-04T15:53:56.312Z,1.57
2018-07-04T15:56:35.844Z,1.57
2018-07-04T15:59:15.448Z,1.47
2018-07-04T16:01:55.017Z,1.30
2018-07-04T16:04:34.580Z,2.13
2018-07-04T16:07:14.289Z,2.27
2018-07-04T16:09:53.924Z,2.42
2018-07-04T16:12:33.607Z,1.37
2018-07-04T16:15:13.069Z,3.08
2018-07-04T16:17:52.727Z,1.07
2018-07-04T16:20:32.452Z,1.27
2018-07-04T16:23:12.077Z,1.67
2018-07-04T16:25:51.772Z,1.00
2018-07-04T16:28:31.353Z,2.00
2018-07-04T16:31:10.861Z,1.60
2018-07-04T16:33:50.480Z,2.47
2018-07-04T16:36:30.091Z,1.47
2018-07-04T16:39:09.821Z,1.57
2018-07-04T16:41:49.396Z,1.23
2018-07-04T16:44:29.063Z,1.57
2018-07-04T16:47:08.661Z,2.10
2018-07-04T16:49:48.140Z,3.03
2018-07-04T16:52:27.675Z,2.33
2018-07-04T16:55:07.283Z,2.10
2018-07-04T16:57:46.732Z,2.30
2018-07-04T17:00:26.416Z,4.07
2018-07-04T17:03:05.932Z,2.67
2018-07-04T17:05:45.368Z,5.23
2018-07-04T17:08:25.016Z,2.00
2018-07-04T17:11:04.473Z,3.07
2018-07-04T17:13:44.124Z,3.27
2018-07-04T17:16:23.737Z,2.33
2018-07-04T17:19:03.356Z,5.50
2018-07-04T17:21:42.921Z,7.27
2018-07-04T17:24:22.374Z,3.30
2018-07-04T17:27:01.909Z,6.80
2018-07-04T17:29:41.601Z,4.83
2018-07-04T17:32:21.320Z,4.67
2018-07-04T17:35:00.856Z,2.77
2018-07-04T17:37:40.320Z,4.03
2018-07-04T17:40:20.044Z,2.23
2018-07-04T17:42:59.626Z,3.57
2018-07-04T17:45:39.250Z,2.13
2018-07-04T17:48:18.686Z,2.17
2018-07-04T17:50:58.411Z,2.70
2018-07-04T17:53:38.196Z,3.47
2018-07-04T17:56:17.728Z,3.23
2018-07-04T17:58:57.300Z,3.87
2018-07-04T18:01:36.842Z,4.50
2018-07-04T18:04:16.373Z,2.33
2018-07-04T18:06:56.081Z,2.80
2018-07-04T18:09:35.491Z,2.40
2018-07-04T18:12:15.180Z,2.80
2018-07-04T18:14:54.939Z,2.27
2018-07-04T18:17:28.471Z,2.10
2018-07-04T18:20:07.949Z,2.10
2018-07-04T18:22:47.561Z,2.77
2018-07-04T18:25:27.084Z,4.57
2018-07-04T18:28:06.533Z,2.60
2018-07-04T18:30:40.115Z,3.33
2018-07-04T18:33:19.648Z,3.00
2018-07-04T18:35:59.168Z,2.90
2018-07-04T18:38:38.856Z,2.27
2018-07-04T18:41:18.564Z,4.37
2018-07-04T18:43:52.132Z,3.53
2018-07-04T18:46:31.608Z,2.73
2018-07-04T18:49:11.308Z,3.27
2018-07-04T18:51:50.912Z,8.53
2018-07-04T18:54:30.580Z,3.13
2018-07-04T18:57:10.265Z,4.00
2018-07-04T18:59:49.839Z,4.90
2018-07-04T19:02:29.504Z,5.77
2018-07-04T19:05:09.049Z,4.87
2018-07-04T19:07:48.748Z,5.00
2018-07-04T19:10:28.296Z,6.73
2018-07-04T19:13:07.888Z,5.07
2018-07-04T19:15:47.608Z,3.90
2018-07-04T19:18:27.228Z,4.37
2018-07-04T19:21:06.819Z,5.50
2018-07-04T19:23:46.500Z,3.87
2018-07-04T19:26:26.016Z,4.67
2018-07-04T19:29:05.669Z,4.60
2018-07-04T19:31:45.113Z,4.10
2018-07-04T19:34:24.800Z,4.47
2018-07-04T19:37:04.477Z,5.47
2018-07-04T19:39:44.015Z,4.80
2018-07-04T19:42:23.626Z,6.63
2018-07-04T19:45:03.228Z,4.83
2018-07-04T19:47:43.016Z,6.50
2018-07-04T19:50:22.709Z,5.50
2018-07-04T19:53:02.280Z,5.53
2018-07-04T19:55:41.971Z,5.13
2018-07-04T19:58:21.492Z,5.47
2018-07-04T20:01:01.088Z,6.77
2018-07-04T20:03:40.727Z,5.57
2018-07-04T20:06:20.433Z,7.40
2018-07-04T20:08:59.988Z,6.30
2018-07-04T20:11:39.774Z,10.33
2018-07-04T20:14:19.456Z,7.53
2018-07-04T20:16:59.047Z,8.60
2018-07-04T20:19:38.620Z,6.40
2018-07-04T20:22:12.260Z,9.50
2018-07-04T20:24:51.836Z,8.40
2018-07-04T20:27:31.529Z,6.47
2018-07-04T20:30:11.081Z,9.13
2018-07-04T20:32:50.732Z,8.97
2018-07-04T20:35:30.252Z,7.47
2018-07-04T20:38:09.836Z,7.73
2018-07-04T20:40:49.459Z,5.13
2018-07-04T20:43:29.225Z,6.87
2018-07-04T20:46:08.552Z,5.83
2018-07-04T20:48:48.302Z,6.00
2018-07-04T20:51:27.924Z,6.70
2018-07-04T20:54:07.445Z,8.47
2018-07-04T20:56:47.024Z,10.07
2018-07-04T20:59:26.728Z,10.07
2018-07-04T21:02:06.269Z,10.03
2018-07-04T21:04:46.073Z,7.03
2018-07-04T21:07:25.604Z,10.03
2018-07-04T21:10:05.414Z,8.37
2018-07-04T21:12:44.807Z,6.30
2018-07-04T21:15:24.437Z,7.33
2018-07-04T21:18:04.120Z,6.93
2018-07-04T21:20:44.040Z,7.83
2018-07-04T21:23:23.653Z,7.67
2018-07-04T21:26:03.341Z,8.63
2018-07-04T21:28:42.872Z,8.83
2018-07-04T21:31:22.388Z,8.67
2018-07-04T21:34:02.086Z,9.17
2018-07-04T21:36:41.740Z,10.83
2018-07-04T21:39:21.295Z,8.10
2018-07-04T21:42:01.056Z,8.73
2018-07-04T21:44:40.761Z,10.20
2018-07-04T21:47:20.333Z,14.93
2018-07-04T21:49:59.813Z,11.40
2018-07-04T21:52:39.495Z,12.13
2018-07-04T21:55:18.981Z,11.80
2018-07-04T21:57:58.816Z,11.83
2018-07-04T22:00:38.472Z,13.37
2018-07-04T22:03:17.997Z,11.30
2018-07-04T22:05:57.741Z,10.23
2018-07-04T22:08:37.413Z,13.30
2018-07-04T22:11:17.061Z,11.70
2018-07-04T22:13:56.754Z,11.93
2018-07-04T22:16:36.406Z,10.30
2018-07-04T22:19:21.572Z,9.97
2018-07-04T22:22:01.117Z,9.20
2018-07-04T22:24:40.887Z,8.93
2018-07-04T22:44:54.297Z,9.23
2018-07-04T22:47:34.333Z,9.90
2018-07-04T22:50:14.055Z,11.43
2018-07-04T22:52:53.667Z,12.70
2018-07-04T22:55:33.307Z,11.53
2018-07-04T22:58:13.264Z,11.13
2018-07-04T23:00:52.909Z,11.33
2018-07-04T23:03:32.788Z,11.80
2018-07-04T23:06:12.938Z,12.10
2018-07-04T23:08:52.613Z,11.50
2018-07-04T23:11:32.888Z,10.63
2018-07-04T23:14:12.742Z,10.00
2018-07-04T23:16:52.695Z,10.33
2018-07-04T23:19:32.877Z,10.97
2018-07-04T23:22:12.387Z,10.07
2018-07-04T23:24:52.205Z,12.87
2018-07-04T23:27:31.825Z,9.00
2018-07-04T23:30:11.700Z,11.10
2018-07-04T23:32:51.534Z,10.53
2018-07-04T23:35:25.512Z,13.17
2018-07-04T23:38:05.131Z,12.77
2018-07-04T23:40:45.000Z,12.13
2018-07-04T23:43:24.744Z,13.20
2018-07-04T23:46:04.625Z,12.13
2018-07-04T23:48:44.327Z,11.30
2018-07-04T23:51:24.403Z,13.23
2018-07-04T23:54:03.985Z,19.83
2018-07-04T23:56:43.755Z,13.83
2018-07-04T23:59:23.370Z,14.20
